createdAt,value
2022-09-16T00:00:51.001Z,84.53
2022-09-16T00:01:51.081Z,84.78
2022-09-16T00:02:50.991Z,84.67
2022-09-16T00:03:50.943Z,84.42
2022-09-16T00:04:51.001Z,84.88
2022-09-16T00:05:51.101Z,84.86
2022-09-16T00:06:50.889Z,84.86
2022-09-16T00:07:50.882Z,85.03
2022-09-16T00:08:50.903Z,85.14
2022-09-16T00:09:50.932Z,84.99
2022-09-16T00:10:50.805Z,85.02
2022-09-16T00:11:50.900Z,85.16
2022-09-16T00:12:50.782Z,85.30
2022-09-16T00:13:51.961Z,85.18
2022-09-16T00:14:50.782Z,85.19
2022-09-16T00:15:52.030Z,85.33
2022-09-16T00:16:50.739Z,85.33
2022-09-16T00:17:50.782Z,85.28
2022-09-16T00:18:50.692Z,85.37
2022-09-16T00:19:50.840Z,85.49
2022-09-16T00:20:50.694Z,85.43
2022-09-16T00:21:50.765Z,84.89
2022-09-16T00:22:50.644Z,84.93
2022-09-16T00:23:51.705Z,85.22
2022-09-16T00:24:50.617Z,85.19
2022-09-16T00:25:50.733Z,85.20
2022-09-16T00:26:50.615Z,85.37
2022-09-16T00:27:51.673Z,85.55
2022-09-16T00:28:50.566Z,85.78
2022-09-16T00:29:51.745Z,85.49
2022-09-16T00:30:50.535Z,85.41
2022-09-16T00:31:50.672Z,85.54
2022-09-16T00:32:50.514Z,85.40
2022-09-16T00:33:50.705Z,85.37
2022-09-16T00:34:50.492Z,85.67
2022-09-16T00:35:51.482Z,85.86
2022-09-16T00:36:50.475Z,85.52
2022-09-16T00:37:50.584Z,85.46
2022-09-16T00:38:50.463Z,85.65
2022-09-16T00:39:50.656Z,85.80
2022-09-16T00:40:50.395Z,85.64
2022-09-16T00:41:50.402Z,85.68
2022-09-16T00:42:50.377Z,85.64
2022-09-16T00:43:50.556Z,85.90
2022-09-16T00:44:50.376Z,86.17
2022-09-16T00:45:50.464Z,85.60
2022-09-16T00:46:50.360Z,85.89
2022-09-16T00:47:50.414Z,86.04
2022-09-16T00:48:50.279Z,85.97
2022-09-16T00:49:50.472Z,86.10
2022-09-16T00:50:50.324Z,86.24
2022-09-16T00:51:50.379Z,86.30
2022-09-16T00:52:50.273Z,86.44
2022-09-16T00:53:51.307Z,85.79
2022-09-16T00:54:50.213Z,85.70
2022-09-16T00:55:50.386Z,85.77
2022-09-16T00:56:50.215Z,85.70
2022-09-16T00:57:50.317Z,85.48
2022-09-16T00:58:50.157Z,85.33
2022-09-16T00:59:50.306Z,84.99
2022-09-16T01:00:50.165Z,84.64
2022-09-16T01:01:50.196Z,84.73
2022-09-16T01:02:50.162Z,84.73
2022-09-16T01:03:51.223Z,84.74
2022-09-16T01:04:50.073Z,84.82
2022-09-16T01:05:50.116Z,84.86
2022-09-16T01:06:50.105Z,84.98
2022-09-16T01:07:50.191Z,85.35
2022-09-16T01:08:50.086Z,85.24
2022-09-16T01:09:50.315Z,85.26
2022-09-16T01:10:50.033Z,85.14
2022-09-16T01:11:50.009Z,84.83
2022-09-16T01:12:49.968Z,84.98
2022-09-16T01:13:50.078Z,84.67
2022-09-16T01:14:49.996Z,84.56
2022-09-16T01:15:49.975Z,84.24
2022-09-16T01:16:49.924Z,84.31
2022-09-16T01:17:50.019Z,84.04
2022-09-16T01:18:49.866Z,83.80
2022-09-16T01:19:51.036Z,83.99
2022-09-16T01:20:49.859Z,83.66
2022-09-16T01:21:49.898Z,83.91
2022-09-16T01:22:49.806Z,83.37
2022-09-16T01:23:49.926Z,83.23
2022-09-16T01:24:49.777Z,83.59
2022-09-16T01:25:49.967Z,83.62
2022-09-16T01:26:49.788Z,83.43
2022-09-16T01:27:50.927Z,83.24
2022-09-16T01:28:49.727Z,83.25
2022-09-16T01:29:49.875Z,82.98
2022-09-16T01:30:49.690Z,82.88
2022-09-16T01:31:49.847Z,82.95
2022-09-16T01:32:49.696Z,83.28
2022-09-16T01:33:50.735Z,83.01
2022-09-16T01:34:49.648Z,83.06
2022-09-16T01:35:49.857Z,82.93
2022-09-16T01:36:49.618Z,82.69
2022-09-16T01:37:49.799Z,82.53
2022-09-16T01:38:49.639Z,82.79
2022-09-16T01:39:49.690Z,82.44
2022-09-16T01:40:49.599Z,82.68
2022-09-16T01:41:49.665Z,82.98
2022-09-16T01:42:49.580Z,83.06
2022-09-16T01:43:49.745Z,83.34
2022-09-16T01:44:49.528Z,83.28
2022-09-16T01:45:49.617Z,83.21
2022-09-16T01:46:49.519Z,83.25
2022-09-16T01:47:49.739Z,83.60
2022-09-16T01:48:53.606Z,83.70
2022-09-16T01:49:49.431Z,83.80
2022-09-16T01:50:53.849Z,84.00
2022-09-16T01:51:49.398Z,83.97
2022-09-16T01:52:49.588Z,84.33
2022-09-16T01:53:49.371Z,84.66
2022-09-16T01:54:49.494Z,84.61
2022-09-16T01:55:49.348Z,84.61
2022-09-16T01:56:49.566Z,84.59
2022-09-16T01:57:49.329Z,84.52
2022-09-16T01:58:49.418Z,84.61
2022-09-16T01:59:49.288Z,84.66
2022-09-16T02:00:51.599Z,84.59
2022-09-16T02:01:49.359Z,84.50
2022-09-16T02:02:49.507Z,84.97
2022-09-16T02:03:49.239Z,84.99
2022-09-16T02:04:50.322Z,85.01
2022-09-16T02:05:49.207Z,85.11
2022-09-16T02:06:49.379Z,84.90
2022-09-16T02:07:49.179Z,84.79
2022-09-16T02:08:49.329Z,84.96
2022-09-16T02:09:49.180Z,84.59
2022-09-16T02:10:50.339Z,84.71
2022-09-16T02:11:49.133Z,85.01
2022-09-16T02:13:11.242Z,85.42
2022-09-16T02:13:49.181Z,84.91
2022-09-16T02:14:49.232Z,84.79
2022-09-16T02:15:49.206Z,84.22
2022-09-16T02:16:49.210Z,84.79
2022-09-16T02:17:49.061Z,85.06
2022-09-16T02:18:49.190Z,84.94
2022-09-16T02:19:49.119Z,85.03
2022-09-16T02:20:50.199Z,85.22
2022-09-16T02:21:49.046Z,84.77
2022-09-16T02:22:49.120Z,85.21
2022-09-16T02:23:49.063Z,85.40
2022-09-16T02:24:49.060Z,85.32
2022-09-16T02:25:48.966Z,85.33
2022-09-16T02:26:49.040Z,84.41
2022-09-16T02:27:48.901Z,84.97
2022-09-16T02:28:49.024Z,85.48
2022-09-16T02:29:48.941Z,85.54
2022-09-16T02:30:49.001Z,84.85
2022-09-16T02:31:52.309Z,84.35
2022-09-16T02:32:49.858Z,83.48
2022-09-16T02:33:48.971Z,83.11
2022-09-16T02:34:48.825Z,83.03
2022-09-16T02:35:49.943Z,83.34
2022-09-16T02:36:48.782Z,83.39
2022-09-16T02:37:48.831Z,82.79
2022-09-16T02:38:48.840Z,83.08
2022-09-16T02:39:48.991Z,82.42
2022-09-16T02:40:48.769Z,82.52
2022-09-16T02:42:09.911Z,82.16
2022-09-16T02:42:48.736Z,82.06
2022-09-16T02:43:48.741Z,82.02
2022-09-16T02:44:48.739Z,81.96
2022-09-16T02:45:48.773Z,82.12
2022-09-16T02:46:48.783Z,82.39
2022-09-16T02:47:48.705Z,82.40
2022-09-16T02:48:48.612Z,82.84
2022-09-16T02:49:48.742Z,83.15
2022-09-16T02:50:48.663Z,83.49
2022-09-16T02:51:48.894Z,83.97
2022-09-16T02:52:48.551Z,84.25
2022-09-16T02:53:49.632Z,84.36
2022-09-16T02:54:48.532Z,84.41
2022-09-16T02:55:48.652Z,84.66
2022-09-16T02:56:48.613Z,84.68
2022-09-16T02:57:48.582Z,84.56
2022-09-16T02:58:48.472Z,84.50
2022-09-16T02:59:49.760Z,84.21
2022-09-16T03:00:48.445Z,84.36
2022-09-16T03:01:49.609Z,84.47
2022-09-16T03:02:48.493Z,84.40
2022-09-16T03:03:48.482Z,84.22
2022-09-16T03:04:48.400Z,84.22
2022-09-16T03:05:49.452Z,84.38
2022-09-16T03:06:48.353Z,84.33
2022-09-16T03:07:50.612Z,84.34
2022-09-16T03:08:48.351Z,84.50
2022-09-16T03:09:48.494Z,84.92
2022-09-16T03:10:48.307Z,84.85
2022-09-16T03:11:48.404Z,84.55
2022-09-16T03:12:48.274Z,84.84
2022-09-16T03:13:48.395Z,85.00
2022-09-16T03:14:48.273Z,85.11
2022-09-16T03:15:48.530Z,85.01
2022-09-16T03:16:48.225Z,84.90
2022-09-16T03:17:48.413Z,85.27
2022-09-16T03:18:48.205Z,85.49
2022-09-16T03:19:49.395Z,85.54
2022-09-16T03:20:48.185Z,85.75
2022-09-16T03:21:48.274Z,85.87
2022-09-16T03:22:48.144Z,85.95
2022-09-16T03:23:48.325Z,85.98
2022-09-16T03:24:48.125Z,86.26
2022-09-16T03:25:48.343Z,86.56
2022-09-16T03:26:48.187Z,86.40
2022-09-16T03:27:48.255Z,86.25
2022-09-16T03:28:48.063Z,86.12
2022-09-16T03:29:48.186Z,85.97
2022-09-16T03:30:48.165Z,85.88
2022-09-16T03:31:49.194Z,85.78
2022-09-16T03:32:48.080Z,85.81
2022-09-16T03:33:50.122Z,86.00
2022-09-16T03:34:47.985Z,85.92
2022-09-16T03:35:48.154Z,86.20
2022-09-16T03:36:47.957Z,86.23
2022-09-16T03:37:49.201Z,86.36
2022-09-16T03:38:47.956Z,86.29
2022-09-16T03:39:48.989Z,86.50
2022-09-16T03:40:47.908Z,86.34
2022-09-16T03:41:47.959Z,86.40
2022-09-16T03:42:47.871Z,86.49
2022-09-16T03:43:47.994Z,86.59
2022-09-16T03:44:47.874Z,86.49
2022-09-16T03:46:09.088Z,86.34
2022-09-16T03:46:47.824Z,86.22
2022-09-16T03:47:47.826Z,86.55
2022-09-16T03:48:48.014Z,86.69
2022-09-16T03:49:47.841Z,86.72
2022-09-16T03:50:51.200Z,86.53
2022-09-16T03:51:47.823Z,86.72
2022-09-16T03:52:47.908Z,86.67
2022-09-16T03:53:47.838Z,86.65
2022-09-16T03:54:47.836Z,86.75
2022-09-16T03:55:47.865Z,86.89
2022-09-16T03:56:47.836Z,86.86
2022-09-16T03:57:47.669Z,86.64
2022-09-16T03:58:47.817Z,86.51
2022-09-16T03:59:47.765Z,86.38
2022-09-16T04:00:47.856Z,86.47
2022-09-16T04:01:47.646Z,86.50
2022-09-16T04:02:48.871Z,86.50
2022-09-16T04:03:47.586Z,86.60
2022-09-16T04:04:47.717Z,86.51
2022-09-16T04:05:47.556Z,86.68
2022-09-16T04:06:48.688Z,86.69
2022-09-16T04:07:47.558Z,86.84
2022-09-16T04:08:47.799Z,86.96
2022-09-16T04:09:47.576Z,86.79
2022-09-16T04:10:47.685Z,86.78
2022-09-16T04:11:47.475Z,86.86
2022-09-16T04:12:48.575Z,86.96
2022-09-16T04:13:47.455Z,86.93
2022-09-16T04:14:47.647Z,87.05
2022-09-16T04:15:47.458Z,86.91
2022-09-16T04:16:47.550Z,87.00
2022-09-16T04:17:47.458Z,87.09
2022-09-16T04:18:47.587Z,87.14
2022-09-16T04:19:47.398Z,86.89
2022-09-16T04:20:47.457Z,86.78
2022-09-16T04:21:47.426Z,87.04
2022-09-16T04:22:47.426Z,86.97
2022-09-16T04:23:47.405Z,86.79
2022-09-16T04:24:47.468Z,86.68
2022-09-16T04:25:47.337Z,86.60
2022-09-16T04:26:48.538Z,86.71
2022-09-16T04:27:47.267Z,86.95
2022-09-16T04:28:47.442Z,86.99
2022-09-16T04:29:47.236Z,87.11
2022-09-16T04:30:48.337Z,87.36
2022-09-16T04:31:47.209Z,87.34
2022-09-16T04:32:47.361Z,87.28
2022-09-16T04:33:47.186Z,87.18
2022-09-16T04:34:47.347Z,87.31
2022-09-16T04:35:47.155Z,87.37
2022-09-16T04:36:47.299Z,87.56
2022-09-16T04:37:47.126Z,87.56
2022-09-16T04:38:47.391Z,87.46
2022-09-16T04:39:47.219Z,87.25
2022-09-16T04:40:47.148Z,87.25
2022-09-16T04:41:47.106Z,87.23
2022-09-16T04:42:47.191Z,87.22
2022-09-16T04:43:47.037Z,87.21
2022-09-16T04:44:47.218Z,87.20
2022-09-16T04:45:47.130Z,86.96
2022-09-16T04:46:47.157Z,87.04
2022-09-16T04:47:46.987Z,87.17
2022-09-16T04:48:47.197Z,87.11
2022-09-16T04:49:46.968Z,87.09
2022-09-16T04:50:47.096Z,87.16
2022-09-16T04:51:46.936Z,87.24
2022-09-16T04:52:47.089Z,87.21
2022-09-16T04:53:46.959Z,87.10
2022-09-16T04:54:49.108Z,87.27
2022-09-16T04:55:46.909Z,87.24
2022-09-16T04:56:47.090Z,87.35
2022-09-16T04:57:46.921Z,87.42
2022-09-16T04:58:46.987Z,87.30
2022-09-16T04:59:46.936Z,87.23
2022-09-16T05:01:07.968Z,87.34
2022-09-16T05:01:46.860Z,87.45
2022-09-16T05:02:46.996Z,87.58
2022-09-16T05:03:46.837Z,87.62
2022-09-16T05:04:46.974Z,87.65
2022-09-16T05:05:46.748Z,87.70
2022-09-16T05:06:46.828Z,87.75
2022-09-16T05:07:46.719Z,87.84
2022-09-16T05:08:46.887Z,87.81
2022-09-16T05:09:46.698Z,87.75
2022-09-16T05:10:46.817Z,87.65
2022-09-16T05:11:46.713Z,87.85
2022-09-16T05:12:49.496Z,87.52
2022-09-16T05:13:46.675Z,87.45
2022-09-16T05:14:46.874Z,87.57
2022-09-16T05:15:51.040Z,87.53
2022-09-16T05:16:46.612Z,87.72
2022-09-16T05:17:51.211Z,87.88
2022-09-16T05:18:47.582Z,87.86
2022-09-16T05:20:07.732Z,87.79
2022-09-16T05:20:46.551Z,87.88
2022-09-16T05:21:46.630Z,87.81
2022-09-16T05:22:46.530Z,87.89
2022-09-16T05:23:47.277Z,88.11
2022-09-16T05:24:46.499Z,88.12
2022-09-16T05:25:47.677Z,88.11
2022-09-16T05:26:46.487Z,87.82
2022-09-16T05:27:46.671Z,87.86
2022-09-16T05:28:46.451Z,87.85
2022-09-16T05:29:46.460Z,88.11
2022-09-16T05:30:46.528Z,87.92
2022-09-16T05:31:46.553Z,87.98
2022-09-16T05:32:46.389Z,87.93
2022-09-16T05:33:46.670Z,87.95
2022-09-16T05:34:46.372Z,88.07
2022-09-16T05:35:46.469Z,88.05
2022-09-16T05:36:46.339Z,87.92
2022-09-16T05:37:46.571Z,87.67
2022-09-16T05:39:04.592Z,87.70
2022-09-16T05:39:47.326Z,87.80
2022-09-16T05:40:46.281Z,87.79
2022-09-16T05:41:47.397Z,87.90
2022-09-16T05:42:46.257Z,88.14
2022-09-16T05:43:46.461Z,88.15
2022-09-16T05:44:46.270Z,88.08
2022-09-16T05:45:46.441Z,87.79
2022-09-16T05:46:46.259Z,87.98
2022-09-16T05:47:46.431Z,87.96
2022-09-16T05:48:46.250Z,88.12
2022-09-16T05:49:48.310Z,88.24
2022-09-16T05:50:46.151Z,88.22
2022-09-16T05:51:46.249Z,88.24
2022-09-16T05:52:46.152Z,88.23
2022-09-16T05:54:07.326Z,88.26
2022-09-16T05:54:46.179Z,88.33
2022-09-16T05:55:47.390Z,88.36
2022-09-16T05:56:46.071Z,88.30
2022-09-16T05:57:46.261Z,88.26
2022-09-16T05:58:46.050Z,88.47
2022-09-16T05:59:47.121Z,88.50
2022-09-16T06:00:46.023Z,88.50
2022-09-16T06:01:47.248Z,88.35
2022-09-16T06:02:46.121Z,88.65
2022-09-16T06:03:46.249Z,88.90
2022-09-16T06:04:46.034Z,88.46
2022-09-16T06:05:46.037Z,88.53
2022-09-16T06:06:45.959Z,88.85
2022-09-16T06:07:46.071Z,88.63
2022-09-16T06:08:45.922Z,88.63
2022-09-16T06:09:45.923Z,88.64
2022-09-16T06:10:45.890Z,88.77
2022-09-16T06:11:45.943Z,88.79
2022-09-16T06:12:45.862Z,89.05
2022-09-16T06:13:45.903Z,89.17
2022-09-16T06:14:45.842Z,89.08
2022-09-16T06:15:48.158Z,89.09
2022-09-16T06:16:45.820Z,89.05
2022-09-16T06:17:47.933Z,88.97
2022-09-16T06:18:45.785Z,88.71
2022-09-16T06:19:45.911Z,88.27
2022-09-16T06:20:45.756Z,88.34
2022-09-16T06:21:45.939Z,88.26
2022-09-16T06:22:45.780Z,88.04
2022-09-16T06:23:45.925Z,88.03
2022-09-16T06:24:45.748Z,87.76
2022-09-16T06:25:45.803Z,87.85
2022-09-16T06:26:45.768Z,88.15
2022-09-16T06:27:45.792Z,88.18
2022-09-16T06:28:45.652Z,88.14
2022-09-16T06:30:06.702Z,88.14
2022-09-16T06:30:45.693Z,87.75
2022-09-16T06:31:45.813Z,86.87
2022-09-16T06:32:45.594Z,86.71
2022-09-16T06:33:46.717Z,86.79
2022-09-16T06:34:45.602Z,87.11
2022-09-16T06:36:55.669Z,87.93
2022-09-16T06:37:55.407Z,87.95
2022-09-16T06:38:55.598Z,88.12
2022-09-16T06:39:55.456Z,87.97
2022-09-16T06:40:56.517Z,87.79
2022-09-16T06:41:55.357Z,87.99
2022-09-16T06:42:59.974Z,88.12
2022-09-16T06:43:55.328Z,87.93
2022-09-16T06:44:56.489Z,87.97
2022-09-16T06:45:55.361Z,87.64
2022-09-16T06:46:55.538Z,87.51
2022-09-16T06:47:55.327Z,87.93
2022-09-16T06:48:55.461Z,87.76
2022-09-16T06:49:55.259Z,88.01
2022-09-16T06:50:55.368Z,87.89
2022-09-16T06:51:55.290Z,87.79
2022-09-16T06:52:56.417Z,87.67
2022-09-16T06:53:55.200Z,87.61
2022-09-16T06:54:55.318Z,87.92
2022-09-16T06:55:55.179Z,87.95
2022-09-16T06:56:55.279Z,87.07
2022-09-16T06:57:55.158Z,87.60
2022-09-16T06:58:56.217Z,87.97
2022-09-16T06:59:55.129Z,87.70
2022-09-16T07:00:55.310Z,86.24
2022-09-16T07:01:55.138Z,86.06
2022-09-16T07:02:56.211Z,87.20
2022-09-16T07:03:55.079Z,87.04
2022-09-16T07:04:57.129Z,86.84
2022-09-16T07:05:55.151Z,87.24
2022-09-16T07:07:09.055Z,87.51
2022-09-16T07:07:56.029Z,87.74
2022-09-16T07:08:55.142Z,88.11
2022-09-16T07:09:54.990Z,88.23
2022-09-16T07:10:55.118Z,88.37
2022-09-16T07:11:54.968Z,88.53
2022-09-16T07:12:55.158Z,88.70
2022-09-16T07:13:54.951Z,88.37
2022-09-16T07:14:55.003Z,88.25
2022-09-16T07:16:12.369Z,87.52
2022-09-16T07:16:56.020Z,87.55
2022-09-16T07:17:54.947Z,87.60
2022-09-16T07:19:00.035Z,87.71
2022-09-16T07:19:55.887Z,86.82
2022-09-16T07:20:55.861Z,86.18
2022-09-16T07:21:54.829Z,86.34
2022-09-16T07:22:54.960Z,85.76
2022-09-16T07:23:54.799Z,85.93
2022-09-16T07:24:54.941Z,86.63
2022-09-16T07:25:54.778Z,86.43
2022-09-16T07:26:54.817Z,86.98
2022-09-16T07:27:54.762Z,86.25
2022-09-16T07:28:55.907Z,85.60
2022-09-16T07:29:54.730Z,85.46
2022-09-16T07:30:54.821Z,85.34
2022-09-16T07:31:54.810Z,85.97
2022-09-16T07:33:15.819Z,85.79
2022-09-16T07:33:54.683Z,86.02
2022-09-16T07:34:54.886Z,84.89
2022-09-16T07:35:54.670Z,83.87
2022-09-16T07:36:54.701Z,83.09
2022-09-16T07:37:54.611Z,83.19
2022-09-16T07:38:54.689Z,83.43
2022-09-16T07:39:54.600Z,83.75
2022-09-16T07:40:54.681Z,85.39
2022-09-16T07:41:54.550Z,85.50
2022-09-16T07:42:54.700Z,85.05
2022-09-16T07:43:54.573Z,83.77
2022-09-16T07:44:54.630Z,83.94
2022-09-16T07:45:54.588Z,84.85
2022-09-16T07:46:54.518Z,84.65
2022-09-16T07:47:54.502Z,85.75
2022-09-16T07:48:54.656Z,83.73
2022-09-16T07:49:54.442Z,84.18
2022-09-16T07:50:54.767Z,83.75
2022-09-16T07:51:54.420Z,84.57
2022-09-16T07:52:54.565Z,84.49
2022-09-16T07:53:54.396Z,84.10
2022-09-16T07:54:55.474Z,84.15
2022-09-16T07:55:54.361Z,83.38
2022-09-16T07:56:54.531Z,83.82
2022-09-16T07:57:54.362Z,84.08
2022-09-16T07:58:54.501Z,83.97
2022-09-16T07:59:54.311Z,83.61
2022-09-16T08:00:54.414Z,84.42
2022-09-16T08:01:54.455Z,85.68
2022-09-16T08:02:54.398Z,84.89
2022-09-16T08:03:54.330Z,84.33
2022-09-16T08:04:54.372Z,84.85
2022-09-16T08:05:54.234Z,85.50
2022-09-16T08:06:57.483Z,83.95
2022-09-16T08:07:54.215Z,83.76
2022-09-16T08:08:54.373Z,84.54
2022-09-16T08:09:54.180Z,84.22
2022-09-16T08:10:54.306Z,83.47
2022-09-16T08:11:54.203Z,81.62
2022-09-16T08:12:54.255Z,82.50
2022-09-16T08:13:54.202Z,82.54
2022-09-16T08:14:54.205Z,82.74
2022-09-16T08:15:54.203Z,82.79
2022-09-16T08:16:54.193Z,83.78
2022-09-16T08:17:54.103Z,84.46
2022-09-16T08:18:54.134Z,83.17
2022-09-16T08:19:54.087Z,83.53
2022-09-16T08:21:15.144Z,85.16
2022-09-16T08:21:54.024Z,85.51
2022-09-16T08:22:57.886Z,85.26
2022-09-16T08:23:54.032Z,85.75
2022-09-16T08:24:54.082Z,84.81
2022-09-16T08:25:53.975Z,83.00
2022-09-16T08:26:54.113Z,83.16
2022-09-16T08:27:55.723Z,83.26
2022-09-16T08:29:10.468Z,82.20
2022-09-16T08:29:54.946Z,84.84
2022-09-16T08:30:54.066Z,83.74
2022-09-16T08:31:53.994Z,80.51
2022-09-16T08:32:53.964Z,80.77
2022-09-16T08:33:53.916Z,81.41
2022-09-16T08:34:54.015Z,82.42
2022-09-16T08:35:53.892Z,81.25
2022-09-16T08:36:53.934Z,82.02
2022-09-16T08:37:53.815Z,83.22
2022-09-16T08:38:56.080Z,82.10
2022-09-16T08:39:53.819Z,81.02
2022-09-16T08:40:54.928Z,79.64
2022-09-16T08:41:53.793Z,79.67
2022-09-16T08:42:54.870Z,78.58
2022-09-16T08:43:53.727Z,78.30
2022-09-16T08:44:53.836Z,78.09
2022-09-16T08:45:53.756Z,77.75
2022-09-16T08:46:53.888Z,76.86
2022-09-16T08:47:53.747Z,76.65
2022-09-16T08:49:53.672Z,77.43
2022-09-16T08:50:53.787Z,77.59
2022-09-16T08:51:53.626Z,79.59
2022-09-16T08:52:54.749Z,76.56
2022-09-16T08:53:53.670Z,75.22
2022-09-16T08:54:53.784Z,75.49
2022-09-16T08:55:53.589Z,75.77
2022-09-16T08:56:53.689Z,78.53
2022-09-16T08:57:53.559Z,78.67
2022-09-16T08:58:54.743Z,77.85
2022-09-16T08:59:53.549Z,77.87
2022-09-16T09:00:53.691Z,79.46
2022-09-16T09:01:53.937Z,79.89
2022-09-16T09:02:53.747Z,79.61
2022-09-16T09:03:53.618Z,77.21
2022-09-16T09:04:53.636Z,77.66
2022-09-16T09:05:53.467Z,77.17
2022-09-16T09:06:54.597Z,75.00
2022-09-16T09:07:53.426Z,75.18
2022-09-16T09:08:53.499Z,75.59
2022-09-16T09:09:53.440Z,74.52
2022-09-16T09:10:54.506Z,74.82
2022-09-16T09:11:53.587Z,75.98
2022-09-16T09:12:56.095Z,77.18
2022-09-16T09:13:53.338Z,77.34
2022-09-16T09:14:53.509Z,76.47
2022-09-16T09:15:53.324Z,74.11
2022-09-16T09:16:53.447Z,74.99
2022-09-16T09:17:53.379Z,74.19
2022-09-16T09:18:53.399Z,74.49
2022-09-16T09:19:53.257Z,75.74
2022-09-16T09:20:53.344Z,76.28
2022-09-16T09:21:53.229Z,76.86
2022-09-16T09:22:53.401Z,77.82
2022-09-16T09:23:53.358Z,75.53
2022-09-16T09:24:56.641Z,72.94
2022-09-16T09:25:53.178Z,72.61
2022-09-16T09:26:53.218Z,74.00
2022-09-16T09:27:53.161Z,73.64
2022-09-16T09:28:55.250Z,73.19
2022-09-16T09:29:53.179Z,71.57
2022-09-16T09:30:54.152Z,72.86
2022-09-16T09:31:53.156Z,73.33
2022-09-16T09:32:53.230Z,70.64
2022-09-16T09:34:53.222Z,66.70
2022-09-16T09:35:53.101Z,67.39
2022-09-16T09:37:15.143Z,71.21
2022-09-16T09:37:53.055Z,69.50
2022-09-16T09:38:53.179Z,71.74
2022-09-16T09:39:53.058Z,70.87
2022-09-16T09:40:53.174Z,68.47
2022-09-16T09:41:52.989Z,68.77
2022-09-16T09:42:54.132Z,67.57
2022-09-16T09:43:52.996Z,66.73
2022-09-16T09:44:54.474Z,67.53
2022-09-16T09:45:52.933Z,68.44
2022-09-16T09:46:53.994Z,68.80
2022-09-16T09:47:52.910Z,68.83
2022-09-16T09:48:52.956Z,68.41
2022-09-16T09:49:52.861Z,70.62
2022-09-16T09:50:54.022Z,66.31
2022-09-16T09:51:52.831Z,65.72
2022-09-16T09:52:52.983Z,65.78
2022-09-16T09:53:52.828Z,64.61
2022-09-16T09:54:52.949Z,66.04
2022-09-16T09:55:52.843Z,64.42
2022-09-16T09:56:52.852Z,64.73
2022-09-16T09:57:52.743Z,64.90
2022-09-16T09:58:52.882Z,66.28
2022-09-16T09:59:52.754Z,71.24
2022-09-16T10:00:52.871Z,73.23
2022-09-16T10:01:52.752Z,70.43
2022-09-16T10:02:52.753Z,70.05
2022-09-16T10:03:52.702Z,71.89
2022-09-16T10:05:13.724Z,68.15
2022-09-16T10:05:52.634Z,64.63
2022-09-16T10:06:52.828Z,66.15
2022-09-16T10:07:52.664Z,66.45
2022-09-16T10:08:52.890Z,68.74
2022-09-16T10:09:52.616Z,64.48
2022-09-16T10:10:53.853Z,65.68
2022-09-16T10:11:52.565Z,68.45
2022-09-16T10:12:53.653Z,65.65
2022-09-16T10:13:52.553Z,69.42
2022-09-16T10:14:52.723Z,62.78
2022-09-16T10:15:54.979Z,61.07
2022-09-16T10:16:52.593Z,60.99
2022-09-16T10:17:52.482Z,62.51
2022-09-16T10:18:53.582Z,60.66
2022-09-16T10:19:52.460Z,61.97
2022-09-16T10:20:52.646Z,59.86
2022-09-16T10:21:52.482Z,59.74
2022-09-16T10:22:53.475Z,61.14
2022-09-16T10:23:52.405Z,62.04
2022-09-16T10:24:52.509Z,60.85
2022-09-16T10:25:52.395Z,60.35
2022-09-16T10:26:52.413Z,61.49
2022-09-16T10:27:52.354Z,59.94
2022-09-16T10:28:52.474Z,60.51
2022-09-16T10:29:52.374Z,62.10
2022-09-16T10:30:52.346Z,64.43
2022-09-16T10:31:52.361Z,62.86
2022-09-16T10:32:52.346Z,61.90
2022-09-16T10:33:52.276Z,61.16
2022-09-16T10:34:52.334Z,58.91
2022-09-16T10:35:52.266Z,59.86
2022-09-16T10:36:52.293Z,58.72
2022-09-16T10:37:52.226Z,60.74
2022-09-16T10:38:52.285Z,62.93
2022-09-16T10:39:52.234Z,59.21
2022-09-16T10:40:52.308Z,59.43
2022-09-16T10:41:52.173Z,59.45
2022-09-16T10:42:52.285Z,59.02
2022-09-16T10:43:52.166Z,59.51
2022-09-16T10:44:53.076Z,59.34
2022-09-16T10:45:52.145Z,62.69
2022-09-16T10:46:52.185Z,64.99
2022-09-16T10:47:52.088Z,59.83
2022-09-16T10:48:52.156Z,59.38
2022-09-16T10:49:52.067Z,65.01
2022-09-16T10:50:54.206Z,62.55
2022-09-16T10:51:52.170Z,65.25
2022-09-16T10:52:54.148Z,61.63
2022-09-16T10:53:52.519Z,57.87
2022-09-16T10:54:52.887Z,57.25
2022-09-16T10:55:51.998Z,57.20
2022-09-16T10:56:52.008Z,56.94
2022-09-16T10:57:51.958Z,60.27
2022-09-16T10:58:52.081Z,60.82
2022-09-16T10:59:51.929Z,59.68
2022-09-16T11:00:53.105Z,59.50
2022-09-16T11:01:52.376Z,57.86
2022-09-16T11:02:51.948Z,57.85
2022-09-16T11:03:51.880Z,58.19
2022-09-16T11:04:54.088Z,56.76
2022-09-16T11:07:22.194Z,58.93
2022-09-16T11:08:01.085Z,58.91
2022-09-16T11:09:02.152Z,59.38
2022-09-16T11:10:01.087Z,60.26
2022-09-16T11:11:01.164Z,59.51
2022-09-16T11:12:01.057Z,60.24
2022-09-16T11:13:01.095Z,60.53
2022-09-16T11:14:01.015Z,60.80
2022-09-16T11:15:01.136Z,61.17
2022-09-16T11:16:01.046Z,62.06
2022-09-16T11:17:02.097Z,61.69
2022-09-16T11:18:01.001Z,63.88
2022-09-16T11:19:02.024Z,64.79
2022-09-16T11:20:00.926Z,62.50
2022-09-16T11:21:01.045Z,61.75
2022-09-16T11:22:00.928Z,61.33
2022-09-16T11:23:01.996Z,62.05
2022-09-16T11:24:00.906Z,61.68
2022-09-16T11:25:01.016Z,62.00
2022-09-16T11:26:00.846Z,62.30
2022-09-16T11:27:01.046Z,62.03
2022-09-16T11:28:00.860Z,62.37
2022-09-16T11:29:00.920Z,62.40
2022-09-16T11:30:00.795Z,63.74
2022-09-16T11:31:00.880Z,62.40
2022-09-16T11:32:00.766Z,62.53
2022-09-16T11:33:21.878Z,63.62
2022-09-16T11:34:01.421Z,62.93
2022-09-16T11:35:00.911Z,62.92
2022-09-16T11:36:00.713Z,62.22
2022-09-16T11:37:02.846Z,62.57
2022-09-16T11:38:00.688Z,63.07
2022-09-16T11:39:01.828Z,63.03
2022-09-16T11:40:00.800Z,64.08
2022-09-16T11:41:00.908Z,63.71
2022-09-16T11:42:00.641Z,64.83
2022-09-16T11:43:00.827Z,63.09
2022-09-16T11:44:00.610Z,63.50
2022-09-16T11:45:00.750Z,63.25
2022-09-16T11:46:00.652Z,63.09
2022-09-16T11:47:00.707Z,62.94
2022-09-16T11:48:00.563Z,63.27
2022-09-16T11:49:00.653Z,63.45
2022-09-16T11:50:00.690Z,63.81
2022-09-16T11:51:00.751Z,63.05
2022-09-16T11:52:00.598Z,63.43
2022-09-16T11:53:04.590Z,63.65
2022-09-16T11:54:01.217Z,63.94
2022-09-16T11:55:00.587Z,65.02
2022-09-16T11:56:00.451Z,64.65
2022-09-16T11:57:00.609Z,63.74
2022-09-16T11:58:00.470Z,64.82
2022-09-16T11:59:01.679Z,65.85
2022-09-16T12:00:00.401Z,63.55
2022-09-16T12:01:00.521Z,65.76
2022-09-16T12:02:00.445Z,63.87
2022-09-16T12:03:00.503Z,64.24
2022-09-16T12:04:00.351Z,64.98
2022-09-16T12:05:00.421Z,64.00
2022-09-16T12:06:00.319Z,63.31
2022-09-16T12:07:00.500Z,63.70
2022-09-16T12:08:00.293Z,63.50
2022-09-16T12:09:01.382Z,63.60
2022-09-16T12:10:00.309Z,63.94
2022-09-16T12:11:00.422Z,65.02
2022-09-16T12:12:00.246Z,64.13
2022-09-16T12:13:00.256Z,62.07
2022-09-16T12:14:07.407Z,62.48
2022-09-16T12:15:05.480Z,63.80
2022-09-16T12:16:00.223Z,63.67
2022-09-16T12:17:00.331Z,64.44
2022-09-16T12:18:00.153Z,65.90
2022-09-16T12:19:00.270Z,63.52
2022-09-16T12:20:00.164Z,64.28
2022-09-16T12:21:00.351Z,65.23
2022-09-16T12:22:00.134Z,65.48
2022-09-16T12:23:00.129Z,63.48
2022-09-16T12:24:00.084Z,63.20
2022-09-16T12:25:01.193Z,63.53
2022-09-16T12:26:00.062Z,63.10
2022-09-16T12:27:00.175Z,63.11
2022-09-16T12:28:00.045Z,62.38
2022-09-16T12:29:00.163Z,63.02
2022-09-16T12:29:59.995Z,62.49
2022-09-16T12:31:01.139Z,62.79
2022-09-16T12:31:59.968Z,62.93
2022-09-16T12:33:00.093Z,63.05
2022-09-16T12:33:59.965Z,62.90
2022-09-16T12:35:00.047Z,63.70
2022-09-16T12:36:00.009Z,64.52
2022-09-16T12:37:02.097Z,63.82
2022-09-16T12:37:59.894Z,64.87
2022-09-16T12:39:00.085Z,64.51
2022-09-16T12:39:59.978Z,65.92
2022-09-16T12:41:00.014Z,65.06
2022-09-16T12:41:59.965Z,64.23
2022-09-16T12:42:59.885Z,64.64
2022-09-16T12:44:06.551Z,64.97
2022-09-16T12:45:00.996Z,64.55
2022-09-16T12:45:59.929Z,63.98
2022-09-16T12:46:59.784Z,63.67
2022-09-16T12:47:59.924Z,63.88
2022-09-16T12:48:59.765Z,63.97
2022-09-16T12:49:59.867Z,64.34
2022-09-16T12:50:59.765Z,64.01
2022-09-16T12:51:59.908Z,64.44
2022-09-16T12:52:59.747Z,65.60
2022-09-16T12:54:00.872Z,66.17
2022-09-16T12:55:14.402Z,64.79
2022-09-16T12:56:00.689Z,64.17
2022-09-16T12:56:59.841Z,64.19